Time;durP1;ratioP1;P1;durP2;ratioP2;P2;SDS_P1;SDS_P2;PMS_P1;PMS_P2;Temp;Humidity;BMP_temperature;BMP_pressure;BME280_temperature;BME280_humidity;BME280_pressure;Samples;Min_cycle;Max_cycle;Signal;HPM_P1;HPM_P2
2021/06/16 00:00:08;;;;;;;3.67;1.83;;;17.70;70.60;;;;;;5053756;28;20028;-79
2021/06/16 00:02:33;;;;;;;3.53;1.90;;;17.70;70.60;;;;;;5054038;28;20079;-78
2021/06/16 00:04:59;;;;;;;3.58;1.88;;;17.70;70.80;;;;;;5053611;28;20045;-78
2021/06/16 00:07:24;;;;;;;3.33;1.60;;;17.70;70.50;;;;;;5053673;28;20033;-78
2021/06/16 00:09:50;;;;;;;5.28;1.88;;;17.70;70.30;;;;;;5067368;28;20017;-78
2021/06/16 00:12:16;;;;;;;3.05;1.80;;;17.70;70.00;;;;;;5073398;28;20032;-77
2021/06/16 00:14:41;;;;;;;5.28;2.10;;;17.70;69.90;;;;;;5074103;28;20017;-78
2021/06/16 00:17:07;;;;;;;6.35;2.00;;;17.70;69.60;;;;;;5073313;28;20129;-78
2021/06/16 00:19:33;;;;;;;3.25;2.15;;;17.60;69.70;;;;;;5074627;28;20055;-77
2021/06/16 00:21:59;;;;;;;4.60;1.70;;;17.60;70.10;;;;;;5074022;28;20063;-77
2021/06/16 00:24:24;;;;;;;4.03;1.75;;;17.60;69.70;;;;;;5075049;28;20017;-79
2021/06/16 00:26:50;;;;;;;4.28;1.67;;;17.60;69.70;;;;;;5081683;28;20047;-77
2021/06/16 00:29:16;;;;;;;2.92;1.92;;;17.60;69.80;;;;;;5078338;28;20020;-78
2021/06/16 00:31:42;;;;;;;3.60;1.55;;;17.60;69.60;;;;;;5074336;28;20027;-79
2021/06/16 00:34:08;;;;;;;4.10;1.73;;;17.60;69.80;;;;;;5074171;28;20059;-78
2021/06/16 00:36:33;;;;;;;4.03;1.75;;;17.50;69.60;;;;;;5073335;28;20048;-78
2021/06/16 00:38:59;;;;;;;3.55;1.95;;;17.50;69.60;;;;;;5073981;28;20097;-78
2021/06/16 00:41:44;;;;;;;8.63;2.20;;;17.50;69.70;;;;;;5073968;28;20036;-77
2021/06/16 00:44:28;;;;;;;5.47;1.83;;;17.50;69.70;;;;;;5073639;28;20634;-78
2021/06/16 00:47:14;;;;;;;2.33;1.40;;;17.50;69.60;;;;;;5073322;28;20097;-77
2021/06/16 00:49:59;;;;;;;4.13;1.90;;;17.50;69.50;;;;;;5073319;28;20085;-77
2021/06/16 00:52:43;;;;;;;4.07;1.80;;;17.40;69.30;;;;;;5073476;28;20071;-77
2021/06/16 00:55:27;;;;;;;2.83;1.80;;;17.40;69.40;;;;;;5073418;28;20094;-76
2021/06/16 00:58:12;;;;;;;2.88;1.67;;;17.40;69.70;;;;;;5073291;28;20664;-77
2021/06/16 01:01:03;;;;;;;3.63;1.70;;;17.40;69.60;;;;;;5072840;28;20039;-77
2021/06/16 01:04:16;;;;;;;3.25;1.45;;;17.30;69.50;;;;;;5073461;28;20148;-79
2021/06/16 01:07:11;;;;;;;3.78;1.42;;;17.30;69.40;;;;;;5073616;28;20090;-79
2021/06/16 01:10:00;;;;;;;7.07;1.88;;;17.30;69.40;;;;;;5065412;28;20555;-79
2021/06/16 01:13:00;;;;;;;3.05;1.30;;;17.30;69.50;;;;;;5054442;28;20039;-79
2021/06/16 01:16:23;;;;;;;7.20;2.00;;;17.30;69.40;;;;;;5053886;28;20112;-79
2021/06/16 01:19:45;;;;;;;5.93;1.95;;;17.20;69.50;;;;;;5061419;28;20511;-78
2021/06/16 01:23:08;;;;;;;7.18;1.85;;;17.20;69.10;;;;;;5072457;28;20047;-79
2021/06/16 01:26:02;;;;;;;3.40;1.35;;;17.20;69.50;;;;;;5073065;28;20515;-79
2021/06/16 01:28:46;;;;;;;3.17;1.60;;;17.20;69.40;;;;;;5072920;28;20082;-78
2021/06/16 01:31:32;;;;;;;4.18;1.58;;;17.10;69.30;;;;;;5073474;28;20043;-79
2021/06/16 01:34:20;;;;;;;4.03;1.63;;;17.10;69.70;;;;;;5072851;28;20450;-79
2021/06/16 01:37:05;;;;;;;4.07;1.48;;;17.10;69.30;;;;;;5072631;28;20043;-78
2021/06/16 01:39:50;;;;;;;3.17;1.63;;;17.10;69.30;;;;;;5071891;28;20036;-79
2021/06/16 01:42:34;;;;;;;4.22;1.60;;;17.10;69.30;;;;;;5072930;28;20077;-79
2021/06/16 01:45:20;;;;;;;4.07;1.83;;;17.10;69.60;;;;;;5070027;28;20051;-79
2021/06/16 01:48:08;;;;;;;3.30;1.55;;;17.00;69.40;;;;;;5071773;28;20093;-78
2021/06/16 01:50:53;;;;;;;3.42;1.73;;;17.00;69.60;;;;;;5072531;28;20517;-79
2021/06/16 01:53:38;;;;;;;;;;;17.00;69.70;;;;;;5072999;28;20052;-78
2021/06/16 01:56:23;;;;;;;6.27;1.63;;;17.00;69.40;;;;;;5072382;28;19912;-76
2021/06/16 01:59:08;;;;;;;4.75;2.00;;;17.00;69.40;;;;;;5071876;28;20210;-72
2021/06/16 02:01:53;;;;;;;3.53;1.70;;;16.90;69.30;;;;;;5070417;28;20043;-72
2021/06/16 02:04:37;;;;;;;4.50;1.55;;;16.90;69.40;;;;;;5070261;28;20131;-72
2021/06/16 02:07:25;;;;;;;3.57;1.73;;;16.80;69.50;;;;;;5071132;28;20147;-72
2021/06/16 02:10:11;;;;;;;3.78;1.88;;;16.80;69.50;;;;;;5070931;28;20278;-72
2021/06/16 02:12:57;;;;;;;5.13;1.88;;;16.80;69.60;;;;;;5071340;28;20048;-72
2021/06/16 02:15:48;;;;;;;4.10;1.90;;;16.70;69.50;;;;;;5070273;28;20035;-72
2021/06/16 02:18:40;;;;;;;3.15;1.75;;;16.70;69.80;;;;;;5070994;28;20100;-71
2021/06/16 02:21:24;;;;;;;5.50;1.58;;;16.70;69.70;;;;;;5071502;28;20032;-71
2021/06/16 02:24:10;;;;;;;3.03;1.67;;;16.70;69.80;;;;;;5071268;28;20039;-71
2021/06/16 02:26:54;;;;;;;3.05;1.83;;;16.60;69.90;;;;;;5056968;28;20086;-70
2021/06/16 02:29:39;;;;;;;4.80;2.57;;;16.60;69.90;;;;;;5071253;28;20035;-71
2021/06/16 02:32:23;;;;;;;6.35;1.73;;;16.60;70.20;;;;;;5071113;28;20067;-71
2021/06/16 02:35:08;;;;;;;4.72;1.65;;;16.60;70.30;;;;;;5071126;28;20098;-71
2021/06/16 02:38:04;;;;;;;7.47;1.83;;;16.50;70.80;;;;;;5070935;28;20400;-71
2021/06/16 02:40:48;;;;;;;6.50;1.80;;;16.50;70.80;;;;;;5068230;28;20027;-71
2021/06/16 02:43:35;;;;;;;4.17;1.90;;;16.50;70.70;;;;;;5070935;28;20034;-71
2021/06/16 02:46:20;;;;;;;3.60;1.75;;;16.50;70.80;;;;;;5070619;28;20360;-71
2021/06/16 02:49:07;;;;;;;3.72;1.60;;;16.50;70.80;;;;;;5070993;28;20040;-71
2021/06/16 02:51:51;;;;;;;2.85;1.58;;;16.50;70.90;;;;;;5070918;28;20044;-71
2021/06/16 02:54:36;;;;;;;3.53;1.53;;;16.50;70.90;;;;;;5070970;28;20055;-71
2021/06/16 02:57:23;;;;;;;3.75;2.05;;;16.50;71.00;;;;;;5070835;28;20293;-71
2021/06/16 03:00:09;;;;;;;2.85;1.70;;;16.40;71.10;;;;;;5074744;28;20684;-71
2021/06/16 03:02:54;;;;;;;4.63;1.80;;;16.40;71.00;;;;;;5054657;28;20035;-72
2021/06/16 03:05:40;;;;;;;2.92;1.60;;;16.40;71.00;;;;;;5054438;28;20064;-71
2021/06/16 03:08:24;;;;;;;;;;;16.40;71.10;;;;;;5056479;28;20036;-71
2021/06/16 03:11:09;;;;;;;3.53;1.63;;;16.40;71.00;;;;;;5073414;28;19915;-71
2021/06/16 03:13:54;;;;;;;2.05;1.40;;;16.40;71.30;;;;;;5073593;28;20067;-72
2021/06/16 03:16:40;;;;;;;4.22;1.90;;;16.40;71.50;;;;;;5074455;28;20035;-73
2021/06/16 03:19:25;;;;;;;4.22;1.70;;;16.40;71.30;;;;;;5073422;28;20043;-73
2021/06/16 03:22:09;;;;;;;;;;;16.40;71.20;;;;;;5074899;28;20523;-73
2021/06/16 03:24:55;;;;;;;4.15;1.67;;;16.40;71.10;;;;;;5074309;28;19911;-73
2021/06/16 03:27:39;;;;;;;3.58;1.75;;;16.40;71.30;;;;;;5074234;28;20428;-74
2021/06/16 03:30:24;;;;;;;;;;;16.50;71.30;;;;;;5074652;28;20116;-74
2021/06/16 03:33:08;;;;;;;4.75;1.80;;;16.50;71.30;;;;;;5074217;28;19999;-73
2021/06/16 03:35:53;;;;;;;6.00;2.13;;;16.50;71.30;;;;;;5074243;28;20354;-74
2021/06/16 03:38:39;;;;;;;3.97;1.80;;;16.50;70.90;;;;;;5074284;28;20035;-74
2021/06/16 03:41:23;;;;;;;4.05;1.80;;;16.50;71.20;;;;;;5074168;28;20035;-74
2021/06/16 03:44:10;;;;;;;3.35;1.70;;;16.60;71.50;;;;;;5073960;28;20093;-73
2021/06/16 03:46:55;;;;;;;5.18;1.88;;;16.60;71.10;;;;;;5071798;28;20515;-74
2021/06/16 03:49:39;;;;;;;;;;;16.60;70.90;;;;;;5072848;28;20036;-74
2021/06/16 03:52:25;;;;;;;4.78;1.70;;;16.70;70.80;;;;;;5066968;28;19915;-74
2021/06/16 03:55:09;;;;;;;;;;;16.70;71.50;;;;;;5054298;28;20039;-73
2021/06/16 03:57:53;;;;;;;3.63;1.63;;;16.80;71.20;;;;;;5054017;28;19911;-72
2021/06/16 04:00:39;;;;;;;3.23;2.00;;;16.80;71.00;;;;;;5053884;28;20035;-76
2021/06/16 04:03:23;;;;;;;3.35;1.80;;;16.90;71.20;;;;;;5053315;28;20056;-76
2021/06/16 04:06:08;;;;;;;3.80;1.70;;;16.90;71.00;;;;;;5053348;28;20052;-80
2021/06/16 04:08:53;;;;;;;4.40;1.80;;;17.00;70.70;;;;;;5059437;28;20035;-80
2021/06/16 04:11:38;;;;;;;;;;;17.00;70.50;;;;;;5072786;28;20086;-80
2021/06/16 04:14:25;;;;;;;3.95;1.70;;;17.10;70.50;;;;;;5073619;28;19958;-80
2021/06/16 04:17:09;;;;;;;3.65;1.55;;;17.20;70.10;;;;;;5072657;28;20088;-80
2021/06/16 04:19:53;;;;;;;2.67;1.60;;;17.20;71.00;;;;;;5074073;28;20067;-79
2021/06/16 04:22:39;;;;;;;4.90;1.95;;;17.30;71.10;;;;;;5073557;28;20035;-78
2021/06/16 04:25:23;;;;;;;2.50;1.55;;;17.30;70.60;;;;;;5072885;28;20407;-76
2021/06/16 04:28:08;;;;;;;2.42;1.48;;;17.40;70.60;;;;;;5072600;28;20044;-68
2021/06/16 04:30:52;;;;;;;3.00;1.50;;;17.50;69.70;;;;;;5072068;28;20412;-69
2021/06/16 04:33:36;;;;;;;6.03;1.70;;;17.50;69.80;;;;;;5072327;28;20105;-69
2021/06/16 04:36:20;;;;;;;4.55;2.08;;;17.50;69.90;;;;;;5072642;28;20047;-67
2021/06/16 04:39:04;;;;;;;2.70;1.63;;;17.60;70.50;;;;;;5072843;28;20392;-66
2021/06/16 04:41:48;;;;;;;5.15;1.83;;;17.70;70.60;;;;;;5056426;28;20417;-65
2021/06/16 04:44:32;;;;;;;5.23;2.07;;;17.80;69.70;;;;;;5072642;28;20542;-66
2021/06/16 04:47:17;;;;;;;6.10;1.73;;;17.80;69.20;;;;;;5072616;28;20086;-66
2021/06/16 04:50:05;;;;;;;3.80;1.75;;;17.90;69.30;;;;;;5071765;28;20051;-67
2021/06/16 04:52:49;;;;;;;6.75;2.00;;;17.90;69.20;;;;;;5066191;28;20086;-68
2021/06/16 04:55:33;;;;;;;2.97;1.50;;;18.00;69.70;;;;;;5072840;28;20031;-68
2021/06/16 04:58:17;;;;;;;3.97;1.70;;;18.00;68.70;;;;;;5072341;28;20039;-67
2021/06/16 05:01:01;;;;;;;3.38;1.63;;;18.00;68.20;;;;;;5072246;28;20112;-67
2021/06/16 05:03:45;;;;;;;3.95;2.10;;;18.00;68.50;;;;;;5072178;28;20127;-67
2021/06/16 05:06:29;;;;;;;3.70;1.77;;;18.00;68.40;;;;;;5071494;28;20503;-67
2021/06/16 05:09:13;;;;;;;3.53;1.50;;;18.10;68.60;;;;;;5060459;28;20150;-67
2021/06/16 05:11:57;;;;;;;2.90;1.70;;;18.10;68.70;;;;;;5071347;28;20038;-67
2021/06/16 05:14:41;;;;;;;4.65;1.73;;;18.20;68.20;;;;;;5060812;28;20114;-66
2021/06/16 05:17:25;;;;;;;4.23;2.07;;;18.20;68.30;;;;;;5072027;28;20118;-68
2021/06/16 05:20:13;;;;;;;6.03;1.83;;;18.20;68.70;;;;;;5072107;28;20277;-68
2021/06/16 05:22:58;;;;;;;4.75;1.90;;;18.30;68.00;;;;;;5051476;28;20062;-68
2021/06/16 05:25:43;;;;;;;;;;;18.30;68.00;;;;;;5064290;28;20126;-68
2021/06/16 05:28:27;;;;;;;5.38;1.50;;;18.30;68.30;;;;;;5071717;28;20405;-68
2021/06/16 05:31:11;;;;;;;4.03;1.97;;;18.40;68.20;;;;;;5071838;28;20123;-68
2021/06/16 05:33:55;;;;;;;3.70;1.60;;;18.40;68.20;;;;;;5071719;28;20274;-68
2021/06/16 05:36:39;;;;;;;8.10;1.77;;;18.40;68.30;;;;;;5071795;28;20039;-68
2021/06/16 05:39:24;;;;;;;4.68;1.70;;;18.50;68.30;;;;;;5071623;28;20499;-67
2021/06/16 05:42:08;;;;;;;4.85;2.55;;;18.50;68.40;;;;;;5071762;28;20074;-67
2021/06/16 05:44:52;;;;;;;4.72;2.13;;;18.50;68.20;;;;;;5071253;28;20439;-67
2021/06/16 05:47:36;;;;;;;2.95;1.70;;;18.60;68.00;;;;;;5059988;28;20043;-67
2021/06/16 05:50:21;;;;;;;5.50;1.75;;;18.60;66.70;;;;;;5053292;28;20040;-68
2021/06/16 05:53:08;;;;;;;5.20;2.15;;;18.60;66.60;;;;;;5071722;28;20032;-68
2021/06/16 05:55:52;;;;;;;5.97;2.00;;;18.70;66.40;;;;;;5070810;28;20089;-68
2021/06/16 05:58:36;;;;;;;6.25;2.25;;;18.80;66.60;;;;;;5071536;28;20115;-68
2021/06/16 06:01:20;;;;;;;5.43;1.50;;;18.80;65.80;;;;;;5071259;28;20035;-67
2021/06/16 06:04:07;;;;;;;6.37;1.47;;;18.80;64.60;;;;;;5071294;28;20070;-69
2021/06/16 06:06:51;;;;;;;4.07;1.45;;;18.80;64.70;;;;;;5071089;28;20403;-68
2021/06/16 06:09:35;;;;;;;3.10;1.43;;;18.80;64.50;;;;;;5071540;28;20035;-66
2021/06/16 06:12:19;;;;;;;13.23;2.73;;;18.90;64.30;;;;;;5071304;28;20281;-68
2021/06/16 06:15:05;;;;;;;2.92;1.60;;;18.90;67.40;;;;;;5070205;28;20036;-69
2021/06/16 06:17:50;;;;;;;4.45;2.00;;;19.10;65.70;;;;;;5062286;28;20032;-69
2021/06/16 06:20:34;;;;;;;6.80;2.13;;;19.10;65.00;;;;;;5051391;28;20082;-68
2021/06/16 06:23:18;;;;;;;5.68;1.80;;;19.10;64.80;;;;;;5069239;28;20035;-69
2021/06/16 06:26:03;;;;;;;4.80;2.07;;;19.20;64.80;;;;;;5070944;28;20047;-69
2021/06/16 06:28:47;;;;;;;4.88;1.63;;;19.30;65.00;;;;;;5071267;28;20491;-69
2021/06/16 06:31:31;;;;;;;3.40;1.92;;;19.30;64.40;;;;;;5071252;28;20043;-69
2021/06/16 06:34:15;;;;;;;3.80;1.90;;;19.30;63.70;;;;;;5072823;28;20036;-69
2021/06/16 06:36:59;;;;;;;4.85;2.30;;;19.40;64.10;;;;;;5075051;28;20638;-69
2021/06/16 06:39:43;;;;;;;6.30;1.70;;;19.50;64.60;;;;;;5074357;28;20028;-68
2021/06/16 06:42:27;;;;;;;4.37;1.77;;;19.50;64.60;;;;;;5075052;28;20510;-68
2021/06/16 06:45:11;;;;;;;4.30;1.80;;;19.60;63.80;;;;;;5068220;28;20118;-65
2021/06/16 06:47:55;;;;;;;2.92;1.58;;;19.70;63.60;;;;;;5054930;28;20147;-65
2021/06/16 06:50:39;;;;;;;4.82;2.05;;;19.80;63.10;;;;;;5060720;28;20515;-65
2021/06/16 06:53:24;;;;;;;3.70;1.40;;;19.80;62.50;;;;;;5070186;28;20051;-65
2021/06/16 06:56:08;;;;;;;7.10;2.30;;;19.80;62.30;;;;;;5073877;28;20044;-66
2021/06/16 06:58:52;;;;;;;5.15;1.58;;;19.90;62.30;;;;;;5069606;28;20036;-65
2021/06/16 07:01:36;;;;;;;3.38;1.48;;;19.90;62.50;;;;;;5071463;28;20047;-66
2021/06/16 07:04:22;;;;;;;5.90;2.10;;;20.00;62.30;;;;;;5074245;28;20519;-65
2021/06/16 07:07:07;;;;;;;3.35;1.55;;;20.10;61.80;;;;;;5073809;28;20313;-65
2021/06/16 07:09:51;;;;;;;6.23;1.73;;;20.20;61.80;;;;;;5064223;28;20039;-65
2021/06/16 07:12:35;;;;;;;4.47;1.90;;;20.20;62.40;;;;;;5056677;28;20071;-65
2021/06/16 07:15:20;;;;;;;3.22;1.42;;;20.30;62.40;;;;;;5073205;28;20059;-65
2021/06/16 07:18:04;;;;;;;8.80;2.10;;;20.40;62.50;;;;;;5073403;28;20094;-65
2021/06/16 07:20:48;;;;;;;4.40;1.40;;;20.50;61.70;;;;;;5074469;28;20044;-65
2021/06/16 07:23:32;;;;;;;6.53;1.98;;;20.60;61.00;;;;;;5073157;28;20097;-65
2021/06/16 07:26:17;;;;;;;8.70;2.08;;;20.60;61.20;;;;;;5072893;28;20048;-65
2021/06/16 07:29:01;;;;;;;3.15;1.30;;;20.70;61.70;;;;;;5073224;28;20039;-65
2021/06/16 07:31:45;;;;;;;4.70;1.60;;;20.80;61.30;;;;;;5070895;28;20040;-66
2021/06/16 07:34:29;;;;;;;7.10;1.70;;;20.90;62.00;;;;;;5072935;28;20063;-66
2021/06/16 07:37:13;;;;;;;2.13;1.40;;;21.00;61.70;;;;;;5072134;28;20071;-65
2021/06/16 07:39:57;;;;;;;4.03;1.60;;;21.00;60.00;;;;;;5074015;28;20825;-65
2021/06/16 07:42:42;;;;;;;5.40;1.92;;;21.10;60.30;;;;;;5074692;28;20082;-65
2021/06/16 07:45:26;;;;;;;3.35;1.65;;;21.10;60.20;;;;;;5088603;28;20048;-65
2021/06/16 07:48:10;;;;;;;3.83;1.40;;;21.20;60.30;;;;;;5069836;28;20052;-65
2021/06/16 07:50:54;;;;;;;4.47;1.47;;;21.30;60.00;;;;;;5079391;28;20039;-65
2021/06/16 07:53:40;;;;;;;5.85;1.70;;;21.30;60.20;;;;;;5054207;28;20465;-65
2021/06/16 07:56:24;;;;;;;6.47;1.85;;;21.40;60.50;;;;;;5070235;28;20051;-65
2021/06/16 07:59:09;;;;;;;4.32;1.95;;;21.50;60.40;;;;;;5072496;28;20086;-64
2021/06/16 08:01:53;;;;;;;6.75;1.80;;;21.60;60.50;;;;;;5073248;28;20074;-65
2021/06/16 08:04:40;;;;;;;5.18;1.88;;;21.60;59.90;;;;;;5070874;28;20758;-65
2021/06/16 08:07:24;;;;;;;2.70;1.50;;;21.70;60.50;;;;;;5072708;28;20051;-65
2021/06/16 08:10:10;;;;;;;5.53;1.70;;;21.80;60.40;;;;;;5053177;28;20079;-65
2021/06/16 08:12:54;;;;;;;6.45;1.75;;;21.80;59.30;;;;;;5056568;28;20082;-65
2021/06/16 08:15:38;;;;;;;6.27;2.13;;;21.90;59.80;;;;;;5073557;28;20090;-66
2021/06/16 08:18:22;;;;;;;11.18;2.22;;;22.00;60.20;;;;;;5066809;28;20039;-65
2021/06/16 08:21:06;;;;;;;3.77;1.80;;;22.00;60.30;;;;;;5066803;28;20392;-65
2021/06/16 08:23:50;;;;;;;6.40;2.03;;;22.20;60.40;;;;;;5074759;28;20537;-65
2021/06/16 08:26:35;;;;;;;6.53;2.20;;;22.20;60.00;;;;;;5068481;28;20052;-65
2021/06/16 08:29:19;;;;;;;5.63;2.33;;;22.20;59.80;;;;;;5072448;28;20570;-66
2021/06/16 08:32:04;;;;;;;5.20;2.08;;;22.30;59.70;;;;;;5072378;28;20059;-66
2021/06/16 08:34:48;;;;;;;10.15;2.20;;;22.30;59.60;;;;;;5071326;28;20032;-65
2021/06/16 08:37:32;;;;;;;4.35;1.77;;;22.40;59.70;;;;;;5063999;28;20051;-66
2021/06/16 08:40:17;;;;;;;5.72;2.15;;;22.50;59.10;;;;;;5070978;28;20040;-66
2021/06/16 08:43:01;;;;;;;7.28;2.22;;;22.60;59.40;;;;;;5071106;28;20093;-66
2021/06/16 08:45:47;;;;;;;5.90;2.28;;;22.60;59.20;;;;;;5071112;28;20119;-64
2021/06/16 08:48:33;;;;;;;6.70;1.98;;;22.70;59.60;;;;;;5072617;28;20389;-65
2021/06/16 08:51:17;;;;;;;3.40;1.95;;;22.80;58.80;;;;;;5071881;28;20035;-65
2021/06/16 08:54:02;;;;;;;9.13;1.88;;;22.90;58.00;;;;;;5072397;28;20102;-65
2021/06/16 08:56:46;;;;;;;3.25;1.65;;;23.00;58.20;;;;;;5069086;28;20170;-65
2021/06/16 08:59:30;;;;;;;3.70;1.70;;;23.00;58.10;;;;;;5070691;28;20093;-65
2021/06/16 09:02:14;;;;;;;2.70;1.92;;;23.10;57.70;;;;;;5072420;28;20400;-65
2021/06/16 09:04:58;;;;;;;5.30;1.65;;;23.20;57.50;;;;;;5069219;28;20068;-65
2021/06/16 09:07:44;;;;;;;3.53;1.75;;;23.20;57.10;;;;;;5071065;28;20040;-65
2021/06/16 09:10:29;;;;;;;3.85;2.10;;;23.30;57.90;;;;;;5071286;28;20098;-65
2021/06/16 09:13:24;;;;;;;6.47;1.97;;;23.40;57.60;;;;;;5072135;28;20032;-65
2021/06/16 09:16:30;;;;;;;5.78;1.90;;;23.50;57.20;;;;;;5071506;28;20432;-65
2021/06/16 09:19:18;;;;;;;;;;;23.60;56.10;;;;;;5072055;28;20043;-64
2021/06/16 09:22:06;;;;;;;4.93;1.90;;;23.60;55.50;;;;;;5070917;28;19912;-64
2021/06/16 09:24:52;;;;;;;5.88;1.60;;;23.60;55.60;;;;;;5072272;28;20032;-65
2021/06/16 09:27:47;;;;;;;5.32;2.13;;;23.60;55.70;;;;;;5070003;28;20044;-64
2021/06/16 09:30:36;;;;;;;3.97;2.00;;;23.60;55.80;;;;;;5051923;28;20131;-65
2021/06/16 09:33:20;;;;;;;6.05;1.70;;;23.70;56.10;;;;;;5069033;28;20082;-64
2021/06/16 09:36:17;;;;;;;5.07;1.80;;;23.80;55.60;;;;;;5070281;28;20034;-65
2021/06/16 09:39:09;;;;;;;5.05;1.90;;;23.90;54.90;;;;;;5071330;28;22294;-65
2021/06/16 09:41:56;;;;;;;6.50;2.08;;;23.90;55.00;;;;;;5068672;28;20555;-64
2021/06/16 09:44:50;;;;;;;3.85;1.88;;;24.00;55.30;;;;;;5070701;28;20103;-65
2021/06/16 09:47:34;;;;;;;6.15;2.05;;;24.20;55.00;;;;;;5070627;28;20133;-65
2021/06/16 09:50:03;;;;;;;3.60;1.80;;;24.30;54.70;;;;;;5068839;28;20492;-65
2021/06/16 09:52:48;;;;;;;4.53;2.55;;;24.40;54.50;;;;;;5069390;28;20047;-65
2021/06/16 09:55:33;;;;;;;7.50;1.95;;;24.50;53.70;;;;;;5071597;28;20039;-66
2021/06/16 09:58:17;;;;;;;3.70;1.52;;;24.50;53.40;;;;;;5069826;28;20222;-65
2021/06/16 10:01:02;;;;;;;5.32;1.77;;;24.50;52.40;;;;;;5069401;28;20121;-65
2021/06/16 10:03:46;;;;;;;4.88;2.30;;;24.50;52.20;;;;;;5068439;28;20130;-65
2021/06/16 10:06:29;;;;;;;6.60;2.20;;;24.50;52.30;;;;;;5065794;28;20558;-65
2021/06/16 10:09:14;;;;;;;4.55;2.15;;;24.50;52.90;;;;;;5066419;28;20309;-65
2021/06/16 10:12:00;;;;;;;5.53;1.90;;;24.60;53.00;;;;;;5071321;28;20032;-65
2021/06/16 10:14:44;;;;;;;4.88;1.67;;;24.70;52.40;;;;;;5071311;28;20102;-64
2021/06/16 10:17:28;;;;;;;3.80;1.70;;;24.80;52.50;;;;;;5071160;28;20034;-65
2021/06/16 10:20:14;;;;;;;4.35;1.88;;;24.90;52.30;;;;;;5071363;28;20538;-65
2021/06/16 10:22:58;;;;;;;3.63;2.00;;;24.90;51.60;;;;;;5071302;28;20039;-65
2021/06/16 10:25:43;;;;;;;8.35;2.03;;;25.00;50.70;;;;;;5070900;28;20063;-65
2021/06/16 10:28:32;;;;;;;2.55;1.63;;;25.00;50.70;;;;;;5069983;28;20036;-65
2021/06/16 10:31:17;;;;;;;5.57;1.90;;;24.90;50.90;;;;;;5066315;28;20063;-65
2021/06/16 10:34:02;;;;;;;4.60;1.80;;;24.90;50.50;;;;;;5068887;28;20082;-64
2021/06/16 10:37:03;;;;;;;3.25;1.60;;;25.10;51.00;;;;;;5067165;28;20542;-65
2021/06/16 10:40:17;;;;;;;2.88;1.70;;;25.10;51.10;;;;;;5069196;28;20047;-65
2021/06/16 10:43:02;;;;;;;2.80;1.73;;;25.30;51.20;;;;;;5070985;28;20550;-65
2021/06/16 10:45:57;;;;;;;5.03;1.85;;;25.30;50.50;;;;;;5069532;28;20507;-65
2021/06/16 10:49:07;;;;;;;4.78;2.08;;;25.50;50.20;;;;;;5070078;28;20564;-65
2021/06/16 10:51:59;;;;;;;3.78;1.67;;;25.60;50.60;;;;;;5069182;28;20040;-65
2021/06/16 10:55:12;;;;;;;4.30;2.00;;;25.70;50.40;;;;;;5062326;28;20135;-65
2021/06/16 10:58:16;;;;;;;5.35;1.67;;;25.70;49.80;;;;;;5067614;28;20120;-65
2021/06/16 11:01:12;;;;;;;5.60;2.08;;;25.80;49.30;;;;;;5065983;28;20404;-65
2021/06/16 11:03:56;;;;;;;2.50;1.50;;;25.90;48.30;;;;;;5070465;28;20086;-65
2021/06/16 11:06:40;;;;;;;5.80;1.80;;;26.00;48.10;;;;;;5063252;28;20075;-64
2021/06/16 11:09:51;;;;;;;2.70;1.60;;;26.00;48.30;;;;;;5061927;28;20120;-64
2021/06/16 11:12:37;;;;;;;3.28;1.55;;;26.10;48.40;;;;;;5067774;28;20036;-65
2021/06/16 11:15:24;;;;;;;4.05;1.73;;;26.20;47.60;;;;;;5069511;28;20027;-65
2021/06/16 11:18:27;;;;;;;4.55;1.85;;;26.20;47.20;;;;;;5067740;28;20070;-65
2021/06/16 11:21:17;;;;;;;2.70;1.45;;;26.30;47.30;;;;;;5067621;28;20036;-65
2021/06/16 11:24:01;;;;;;;3.65;1.60;;;26.30;46.90;;;;;;5062744;28;20031;-65
2021/06/16 11:26:46;;;;;;;3.28;1.48;;;26.40;46.50;;;;;;5067103;28;20035;-65
2021/06/16 11:30:02;;;;;;;3.83;1.70;;;26.40;46.30;;;;;;5072067;28;20055;-65
2021/06/16 11:33:15;;;;;;;5.70;2.00;;;26.50;46.80;;;;;;5066854;28;20534;-65
2021/06/16 11:36:10;;;;;;;2.95;1.80;;;26.60;46.40;;;;;;5054157;28;20499;-64
2021/06/16 11:38:56;;;;;;;;;;;26.60;46.50;;;;;;5071296;28;20044;-65
2021/06/16 11:41:41;;;;;;;;;;;26.60;46.90;;;;;;5072291;28;20407;-63
2021/06/16 11:44:25;;;;;;;6.40;1.98;;;26.60;46.60;;;;;;5068218;28;19962;-64
2021/06/16 11:47:09;;;;;;;3.75;2.20;;;26.60;46.60;;;;;;5066430;28;20397;-63
2021/06/16 11:50:00;;;;;;;11.07;1.85;;;26.60;46.60;;;;;;5070409;28;20558;-64
2021/06/16 11:52:59;;;;;;;4.13;1.98;;;26.60;46.50;;;;;;5073738;28;20097;-64
2021/06/16 11:55:48;;;;;;;3.60;1.90;;;26.60;45.70;;;;;;5073038;28;20051;-64
2021/06/16 11:58:35;;;;;;;4.40;2.05;;;26.70;46.10;;;;;;5064289;28;20099;-64
2021/06/16 12:01:19;;;;;;;4.25;1.73;;;26.70;46.40;;;;;;5058232;28;20120;-64
2021/06/16 12:04:03;;;;;;;2.97;1.65;;;26.80;46.30;;;;;;5070173;28;20469;-64
2021/06/16 12:06:55;;;;;;;2.53;1.63;;;26.90;46.60;;;;;;5063557;28;20067;-65
2021/06/16 12:09:47;;;;;;;2.92;1.73;;;26.90;45.90;;;;;;5072412;28;20032;-69
2021/06/16 12:12:49;;;;;;;6.78;1.95;;;27.00;45.70;;;;;;5072566;28;20039;-69
2021/06/16 12:15:36;;;;;;;3.30;1.83;;;27.00;45.80;;;;;;5053532;28;20086;-70
2021/06/16 12:18:20;;;;;;;3.03;1.90;;;27.10;46.40;;;;;;5069458;28;20039;-69
2021/06/16 12:21:04;;;;;;;1.80;1.50;;;27.20;46.10;;;;;;5070653;28;20400;-69
2021/06/16 12:23:48;;;;;;;4.15;2.10;;;27.20;45.70;;;;;;5069611;28;20098;-69
2021/06/16 12:26:32;;;;;;;4.30;2.08;;;27.30;45.90;;;;;;5067593;28;20426;-68
2021/06/16 12:29:16;;;;;;;;;;;27.30;45.20;;;;;;5057366;28;20043;-69
2021/06/16 12:32:04;;;;;;;6.88;2.20;;;27.30;46.20;;;;;;5071461;28;19955;-69
2021/06/16 12:35:03;;;;;;;3.03;2.10;;;27.40;45.90;;;;;;5071534;28;20067;-69
2021/06/16 12:37:50;;;;;;;5.90;1.88;;;27.50;45.80;;;;;;5055343;28;20219;-70
2021/06/16 12:40:36;;;;;;;5.93;2.20;;;27.50;45.10;;;;;;5070874;28;20047;-69
2021/06/16 12:43:23;;;;;;;5.03;2.00;;;27.60;45.30;;;;;;5067128;28;20028;-69
2021/06/16 12:45:54;;;;;;;3.38;1.90;;;27.70;44.90;;;;;;5061004;28;20524;-69
2021/06/16 12:48:28;;;;;;;4.47;2.10;;;27.70;44.90;;;;;;5060670;28;20408;-69
2021/06/16 12:50:57;;;;;;;6.55;2.70;;;27.80;44.80;;;;;;5072663;28;20484;-69
2021/06/16 12:53:24;;;;;;;3.42;2.30;;;27.80;45.20;;;;;;5071084;28;20123;-69
2021/06/16 12:55:55;;;;;;;5.45;2.35;;;27.90;45.10;;;;;;5067854;28;20538;-69
2021/06/16 12:58:23;;;;;;;2.85;1.85;;;28.10;45.40;;;;;;5064017;28;20469;-68
2021/06/16 13:00:54;;;;;;;3.40;2.10;;;28.20;45.10;;;;;;5071213;28;20059;-69
2021/06/16 13:03:22;;;;;;;3.75;2.05;;;28.30;44.20;;;;;;5054018;28;20053;-68
2021/06/16 13:06:01;;;;;;;6.47;2.15;;;28.30;44.50;;;;;;5067304;28;20028;-68
2021/06/16 13:08:45;;;;;;;5.30;2.00;;;28.50;44.50;;;;;;5071780;28;20041;-68
2021/06/16 13:11:31;;;;;;;3.60;2.10;;;28.60;45.00;;;;;;5071790;28;20036;-68
2021/06/16 13:14:16;;;;;;;3.83;2.17;;;28.70;44.90;;;;;;5070492;28;20032;-69
2021/06/16 13:16:43;;;;;;;3.83;2.33;;;28.80;44.60;;;;;;5070651;28;20060;-69
2021/06/16 13:19:11;;;;;;;3.88;2.47;;;28.90;44.10;;;;;;5070383;28;20024;-68
2021/06/16 13:21:38;;;;;;;5.82;2.03;;;28.90;43.70;;;;;;5071629;28;20028;-68
2021/06/16 13:24:07;;;;;;;3.00;1.98;;;28.90;43.30;;;;;;5070865;28;20028;-71
2021/06/16 13:26:59;;;;;;;4.07;1.85;;;28.90;43.10;;;;;;5071670;28;20514;-67
2021/06/16 13:29:43;;;;;;;4.63;2.15;;;28.90;43.40;;;;;;5070461;28;20032;-67
2021/06/16 13:32:39;;;;;;;4.20;2.00;;;29.00;43.20;;;;;;5069299;28;20063;-67
2021/06/16 13:35:05;;;;;;;5.88;1.92;;;29.00;42.90;;;;;;5065877;28;20161;-69
2021/06/16 13:37:30;;;;;;;4.50;2.08;;;29.00;43.10;;;;;;5062338;28;20567;-68
2021/06/16 13:39:56;;;;;;;7.03;2.08;;;29.00;43.20;;;;;;5061862;28;20081;-68
2021/06/16 13:42:21;;;;;;;5.63;2.08;;;29.00;43.30;;;;;;5082148;28;20024;-68
2021/06/16 13:45:06;;;;;;;7.97;2.15;;;29.10;43.10;;;;;;5067749;28;20043;-68
2021/06/16 13:47:40;;;;;;;4.50;1.88;;;29.10;43.00;;;;;;5067591;28;20085;-68
2021/06/16 13:50:07;;;;;;;3.85;2.28;;;29.20;43.10;;;;;;5080186;28;20021;-69
2021/06/16 13:52:32;;;;;;;5.68;1.90;;;29.20;43.60;;;;;;5068594;28;20075;-68
2021/06/16 13:54:58;;;;;;;4.00;2.20;;;29.30;42.70;;;;;;5070263;28;20044;-69
2021/06/16 13:57:23;;;;;;;3.63;2.10;;;29.40;42.50;;;;;;5069249;28;20024;-69
2021/06/16 13:59:49;;;;;;;2.90;1.92;;;29.50;42.30;;;;;;5070341;28;20039;-69
2021/06/16 14:02:14;;;;;;;6.18;2.22;;;29.60;43.10;;;;;;5073771;28;20025;-69
2021/06/16 14:04:40;;;;;;;5.68;2.38;;;29.70;42.90;;;;;;5055692;28;20040;-68
2021/06/16 14:07:06;;;;;;;4.45;2.00;;;29.80;42.70;;;;;;5051099;28;20033;-68
2021/06/16 14:09:31;;;;;;;3.95;2.30;;;29.90;42.20;;;;;;5064739;28;20016;-68
2021/06/16 14:11:57;;;;;;;5.22;2.20;;;30.00;42.00;;;;;;5071385;28;20028;-68
2021/06/16 14:14:22;;;;;;;3.47;1.80;;;30.00;42.10;;;;;;5068777;28;20549;-69
2021/06/16 14:16:48;;;;;;;3.92;2.00;;;30.20;42.90;;;;;;5059379;28;20048;-68